Time;durP1;ratioP1;P1;durP2;ratioP2;P2;SDS_P1;SDS_P2;PMS_P1;PMS_P2;Temp;Humidity;BMP_temperature;BMP_pressure;BME280_temperature;BME280_humidity;BME280_pressure;Samples;Min_cycle;Max_cycle;Signal;HPM_P1;HPM_P2
2022/05/31 00:02:19;;;;;;;5.05;2.97;;;9.80;99.90;;;;;;4990875;28;39561;-75
2022/05/31 00:04:46;;;;;;;5.10;2.83;;;9.80;99.90;;;;;;5002794;28;42730;-75
2022/05/31 00:07:12;;;;;;;8.35;2.85;;;9.70;99.90;;;;;;4988944;28;36309;-75
2022/05/31 00:09:38;;;;;;;5.45;2.63;;;9.70;99.90;;;;;;4991246;28;39181;-75
2022/05/31 00:12:06;;;;;;;5.57;2.90;;;9.70;99.90;;;;;;4993364;28;38323;-75
2022/05/31 00:14:32;;;;;;;4.15;2.20;;;9.70;99.90;;;;;;4991026;28;39571;-75
2022/05/31 00:17:00;;;;;;;4.07;2.67;;;9.70;99.90;;;;;;4997307;28;37100;-74
2022/05/31 00:19:26;;;;;;;6.50;2.88;;;9.60;99.90;;;;;;4990385;28;39812;-74
2022/05/31 00:22:14;;;;;;;6.70;3.45;;;9.60;99.90;;;;;;4982089;28;37208;-75
2022/05/31 00:24:41;;;;;;;6.03;3.15;;;9.50;99.90;;;;;;5003696;28;47133;-75
2022/05/31 00:27:10;;;;;;;6.13;3.50;;;9.50;99.90;;;;;;4991212;28;37298;-74
2022/05/31 00:29:36;;;;;;;9.68;3.20;;;9.50;99.90;;;;;;5003615;28;39986;-75
2022/05/31 00:32:05;;;;;;;6.32;3.72;;;9.50;99.90;;;;;;4989318;28;38648;-75
2022/05/31 00:34:33;;;;;;;7.90;2.83;;;9.50;99.90;;;;;;4974877;28;39278;-75
2022/05/31 00:37:00;;;;;;;6.32;3.15;;;9.40;99.90;;;;;;4987700;28;37468;-75
2022/05/31 00:39:26;;;;;;;4.93;3.20;;;9.40;99.90;;;;;;4986396;28;38850;-75
2022/05/31 00:41:58;;;;;;;3.30;2.70;;;9.40;99.90;;;;;;4991563;28;38794;-75
2022/05/31 00:44:27;;;;;;;3.35;3.05;;;9.40;99.90;;;;;;5000434;28;39162;-75
2022/05/31 00:46:58;;;;;;;4.40;3.05;;;9.30;99.90;;;;;;4980578;28;37753;-75
2022/05/31 00:49:34;;;;;;;5.82;3.78;;;9.30;99.90;;;;;;4984833;28;38708;-75
2022/05/31 00:52:07;;;;;;;7.43;3.80;;;9.30;99.90;;;;;;4986730;28;38972;-75
2022/05/31 00:54:35;;;;;;;;;;;9.30;99.90;;;;;;5001527;28;47012;-75
2022/05/31 00:57:02;;;;;;;7.10;3.60;;;9.20;99.90;;;;;;5001544;28;38103;-74
2022/05/31 00:59:43;;;;;;;6.25;3.95;;;9.20;99.90;;;;;;4982346;28;39038;-74
2022/05/31 01:02:11;;;;;;;7.95;4.13;;;9.20;99.90;;;;;;4986960;28;39540;-75
2022/05/31 01:04:45;;;;;;;7.83;4.30;;;9.20;99.90;;;;;;4983090;28;38533;-75
2022/05/31 01:07:11;;;;;;;5.93;3.88;;;9.20;99.90;;;;;;4983189;28;38167;-74
2022/05/31 01:09:37;;;;;;;6.20;4.57;;;9.20;99.90;;;;;;4970603;28;40302;-74
2022/05/31 01:12:04;;;;;;;10.57;4.47;;;9.20;99.90;;;;;;4979034;28;37653;-74
2022/05/31 01:14:32;;;;;;;7.22;4.25;;;9.20;99.90;;;;;;4985452;28;39616;-75
2022/05/31 01:17:09;;;;;;;7.70;4.43;;;9.10;99.90;;;;;;4983900;28;38401;-74
2022/05/31 01:22:20;;;;;;;9.20;4.77;;;9.10;99.90;;;;;;4988202;28;38067;-74
2022/05/31 01:25:11;;;;;;;6.73;4.37;;;9.10;99.90;;;;;;4993747;28;40144;-74
2022/05/31 01:28:11;;;;;;;7.97;5.03;;;9.10;99.90;;;;;;4986212;28;48613;-75
2022/05/31 01:30:44;;;;;;;9.50;4.87;;;9.00;99.90;;;;;;4987812;28;48352;-74
2022/05/31 01:33:21;;;;;;;7.87;5.37;;;9.00;99.90;;;;;;4985819;28;39677;-74
2022/05/31 01:35:47;;;;;;;8.83;4.83;;;9.00;99.90;;;;;;4985733;28;38435;-74
2022/05/31 01:38:23;;;;;;;5.90;4.73;;;9.00;99.90;;;;;;4985359;28;37120;-74
2022/05/31 01:41:19;;;;;;;7.60;4.68;;;8.90;99.90;;;;;;4985447;28;39065;-75
2022/05/31 01:43:51;;;;;;;8.23;6.37;;;8.80;99.90;;;;;;4979595;28;48574;-74
2022/05/31 01:46:24;;;;;;;9.50;6.82;;;8.80;99.90;;;;;;4984137;28;38936;-75
2022/05/31 01:48:51;;;;;;;9.23;5.70;;;8.80;99.90;;;;;;4985809;28;37179;-74
2022/05/31 01:51:20;;;;;;;8.97;6.33;;;8.80;99.90;;;;;;4985346;28;20125;-74
2022/05/31 01:53:46;;;;;;;8.27;6.07;;;8.80;99.90;;;;;;4988485;28;37695;-74
2022/05/31 01:56:13;;;;;;;8.37;6.30;;;8.80;99.90;;;;;;4986917;28;38506;-74
2022/05/31 01:58:43;;;;;;;9.53;5.67;;;8.80;99.90;;;;;;4983411;28;39149;-74
2022/05/31 02:01:10;;;;;;;10.97;7.03;;;8.80;99.90;;;;;;4985926;28;38920;-74
2022/05/31 02:03:39;;;;;;;8.47;6.70;;;8.80;99.90;;;;;;4986827;28;39320;-75
2022/05/31 02:06:21;;;;;;;11.60;6.53;;;8.80;99.90;;;;;;4988282;28;39172;-75
2022/05/31 02:08:47;;;;;;;10.48;6.75;;;8.80;99.90;;;;;;4989424;28;37028;-75
2022/05/31 02:11:13;;;;;;;10.33;6.07;;;8.80;99.90;;;;;;4977281;28;38948;-75
2022/05/31 02:13:39;;;;;;;7.17;6.47;;;8.80;99.90;;;;;;4986326;28;39338;-74
2022/05/31 02:16:06;;;;;;;9.37;7.07;;;8.80;99.90;;;;;;4984133;28;38971;-74
2022/05/31 02:21:18;;;;;;;8.00;7.00;;;8.80;99.90;;;;;;4947563;28;38403;-74
2022/05/31 02:23:44;;;;;;;8.67;7.10;;;8.70;99.90;;;;;;4993007;28;39730;-75
2022/05/31 02:26:10;;;;;;;7.30;6.60;;;8.70;99.90;;;;;;4984965;28;39837;-75
2022/05/31 02:28:36;;;;;;;12.27;8.37;;;8.70;99.90;;;;;;5002735;28;37498;-74
2022/05/31 02:31:02;;;;;;;11.83;7.77;;;8.70;99.90;;;;;;4989166;28;39337;-74
2022/05/31 02:33:29;;;;;;;11.47;8.60;;;8.80;99.90;;;;;;4991913;28;39633;-74
2022/05/31 02:35:55;;;;;;;11.63;7.63;;;8.70;99.90;;;;;;4988414;28;39516;-74
2022/05/31 02:38:21;;;;;;;12.57;8.37;;;8.70;99.90;;;;;;4990376;28;37399;-75
2022/05/31 02:40:47;;;;;;;13.33;8.63;;;8.80;99.90;;;;;;4991233;28;38723;-74
2022/05/31 02:43:13;;;;;;;10.63;7.77;;;8.70;99.90;;;;;;4985753;28;39079;-74
2022/05/31 02:45:39;;;;;;;12.20;8.83;;;8.60;99.90;;;;;;5005358;28;39085;-74
2022/05/31 02:48:05;;;;;;;10.03;8.50;;;8.70;99.90;;;;;;4987876;28;36146;-74
2022/05/31 02:50:31;;;;;;;10.17;8.80;;;8.70;99.90;;;;;;4976990;28;40863;-74
2022/05/31 02:52:57;;;;;;;11.17;9.50;;;8.70;99.90;;;;;;5002886;28;39132;-74
2022/05/31 02:55:23;;;;;;;12.30;9.60;;;8.70;99.90;;;;;;4984101;28;38458;-74
2022/05/31 02:57:50;;;;;;;12.30;10.27;;;8.70;99.90;;;;;;4981940;28;38233;-75
2022/05/31 03:00:17;;;;;;;13.13;10.77;;;8.60;99.90;;;;;;4979794;28;39830;-75
2022/05/31 03:02:43;;;;;;;12.77;10.90;;;8.60;99.90;;;;;;4986999;28;38748;-74
2022/05/31 03:05:09;;;;;;;15.83;11.37;;;8.70;99.90;;;;;;4990386;28;39106;-74
2022/05/31 03:07:35;;;;;;;15.93;11.10;;;8.70;99.90;;;;;;4985522;28;37387;-74
2022/05/31 03:10:01;;;;;;;14.03;10.00;;;8.70;99.90;;;;;;5004499;28;38820;-75
2022/05/31 03:12:28;;;;;;;12.13;9.90;;;8.70;99.90;;;;;;4989973;28;49276;-75
2022/05/31 03:15:11;;;;;;;12.20;10.90;;;8.70;99.90;;;;;;4990849;28;40351;-75
2022/05/31 03:17:41;;;;;;;13.70;10.38;;;8.70;99.90;;;;;;4993954;28;47177;-75
2022/05/31 03:20:27;;;;;;;12.13;10.67;;;8.70;99.90;;;;;;4986094;28;37574;-75
2022/05/31 03:23:00;;;;;;;13.13;9.50;;;8.70;99.90;;;;;;4986494;28;39967;-74
2022/05/31 03:25:27;;;;;;;;;;;8.70;99.90;;;;;;4989361;28;39525;-75
2022/05/31 03:27:58;;;;;;;14.00;10.40;;;8.70;99.90;;;;;;4982923;28;37458;-74
2022/05/31 03:30:24;;;;;;;13.67;10.77;;;8.70;99.90;;;;;;4986733;28;39517;-74
2022/05/31 03:32:53;;;;;;;14.50;12.00;;;8.70;99.90;;;;;;4986575;28;38873;-74
2022/05/31 03:35:19;;;;;;;11.00;9.87;;;8.70;99.90;;;;;;5002657;28;38481;-74
2022/05/31 03:37:45;;;;;;;13.70;10.47;;;8.70;99.90;;;;;;4985900;28;37414;-74
2022/05/31 03:40:55;;;;;;;13.33;10.10;;;8.70;99.90;;;;;;4986011;28;40281;-74
2022/05/31 03:43:03;;;;;;;11.83;10.53;;;8.70;99.90;;;;;;4987406;28;39399;-74
2022/05/31 03:45:38;;;;;;;16.10;12.07;;;8.70;99.90;;;;;;4985779;28;48630;-74
2022/05/31 03:48:05;;;;;;;12.77;10.80;;;8.70;99.90;;;;;;4986005;28;37022;-75
2022/05/31 03:50:32;;;;;;;13.97;11.37;;;8.70;99.90;;;;;;5002889;28;39259;-74
2022/05/31 03:52:59;;;;;;;13.67;11.47;;;8.70;99.90;;;;;;4988575;28;38715;-75
2022/05/31 03:55:25;;;;;;;12.87;11.13;;;8.70;99.90;;;;;;5000972;28;38450;-74
2022/05/31 03:57:52;;;;;;;12.77;11.33;;;8.70;99.90;;;;;;4985431;28;37917;-75
2022/05/31 04:00:18;;;;;;;14.27;10.87;;;8.70;99.90;;;;;;4987487;28;38432;-75
2022/05/31 04:02:45;;;;;;;16.07;10.60;;;8.80;99.90;;;;;;4985765;28;38161;-74
2022/05/31 04:05:12;;;;;;;14.77;11.27;;;8.80;99.90;;;;;;4999127;28;39800;-74
2022/05/31 04:07:40;;;;;;;15.70;11.90;;;8.80;99.90;;;;;;4986856;28;37796;-74
2022/05/31 04:10:08;;;;;;;15.97;11.43;;;8.80;99.90;;;;;;4999213;28;40088;-74
2022/05/31 04:12:35;;;;;;;14.80;11.77;;;8.90;99.90;;;;;;4984723;28;39755;-75
2022/05/31 04:15:01;;;;;;;13.07;11.67;;;8.90;99.90;;;;;;4988620;28;39370;-75
2022/05/31 04:17:27;;;;;;;12.83;11.30;;;9.00;99.90;;;;;;4986711;28;46077;-75
2022/05/31 04:19:54;;;;;;;16.50;12.37;;;9.00;99.90;;;;;;4982458;28;39502;-74
2022/05/31 04:22:20;;;;;;;12.88;11.43;;;9.00;99.90;;;;;;4986274;28;39733;-74
2022/05/31 04:24:46;;;;;;;13.52;11.65;;;9.00;99.90;;;;;;4997170;28;38453;-74
2022/05/31 04:27:16;;;;;;;13.55;12.02;;;9.00;99.90;;;;;;4986579;28;38027;-74
2022/05/31 04:29:43;;;;;;;13.33;11.70;;;9.10;99.90;;;;;;4987381;28;39294;-74
2022/05/31 04:32:09;;;;;;;14.23;12.43;;;9.10;99.90;;;;;;4999380;28;39401;-75
2022/05/31 04:34:35;;;;;;;15.90;11.97;;;9.10;99.90;;;;;;4985990;28;38420;-74
2022/05/31 04:37:02;;;;;;;15.23;11.98;;;9.10;99.90;;;;;;4987087;28;38104;-74
2022/05/31 04:39:28;;;;;;;14.23;12.33;;;9.20;99.90;;;;;;4984839;28;39358;-74
2022/05/31 04:41:54;;;;;;;15.45;11.48;;;9.20;99.90;;;;;;4987415;28;38759;-74
2022/05/31 04:44:20;;;;;;;14.18;11.00;;;9.30;99.90;;;;;;4997420;28;39178;-74
2022/05/31 04:46:48;;;;;;;13.93;11.57;;;9.40;99.90;;;;;;4984990;28;37512;-74
2022/05/31 04:49:14;;;;;;;13.13;11.35;;;9.50;99.90;;;;;;4984688;28;38713;-74
2022/05/31 04:51:41;;;;;;;13.98;11.75;;;9.50;99.90;;;;;;5000031;28;38400;-74
2022/05/31 04:54:07;;;;;;;12.57;11.30;;;9.60;99.90;;;;;;4981996;28;39723;-75
2022/05/31 04:56:34;;;;;;;14.32;12.82;;;9.70;99.90;;;;;;4984860;28;37163;-75
2022/05/31 04:59:00;;;;;;;14.25;11.55;;;9.80;99.90;;;;;;5000453;28;38634;-74
2022/05/31 05:01:27;;;;;;;15.77;12.27;;;9.90;99.90;;;;;;4980593;28;37659;-74
2022/05/31 05:03:54;;;;;;;11.80;10.63;;;10.00;99.90;;;;;;4986704;28;38627;-74
2022/05/31 05:06:21;;;;;;;16.10;12.50;;;10.10;99.90;;;;;;4981802;28;38287;-74
2022/05/31 05:08:48;;;;;;;14.60;12.38;;;10.20;99.90;;;;;;4982807;28;40087;-74
2022/05/31 05:11:19;;;;;;;16.20;12.50;;;10.30;99.90;;;;;;4979687;28;39114;-74
2022/05/31 05:13:45;;;;;;;12.88;11.10;;;10.40;99.90;;;;;;4999646;28;38070;-74
2022/05/31 05:16:14;;;;;;;15.68;11.20;;;10.50;99.90;;;;;;4982802;28;37226;-74
2022/05/31 05:18:40;;;;;;;13.27;11.45;;;10.60;99.90;;;;;;4984386;28;38337;-74
2022/05/31 05:21:10;;;;;;;14.55;11.05;;;10.70;99.90;;;;;;4984024;28;38904;-74
2022/05/31 05:23:36;;;;;;;13.10;10.15;;;10.80;99.90;;;;;;4984553;28;40501;-74
2022/05/31 05:26:02;;;;;;;18.77;11.80;;;10.90;99.90;;;;;;4975640;28;37718;-74
2022/05/31 05:31:27;;;;;;;12.18;8.85;;;11.10;99.90;;;;;;4973859;28;39579;-74
2022/05/31 05:33:54;;;;;;;11.10;9.68;;;11.20;99.90;;;;;;4983734;28;38181;-72
2022/05/31 05:36:21;;;;;;;14.30;9.02;;;11.30;99.90;;;;;;4998682;28;38028;-73
2022/05/31 05:38:48;;;;;;;12.07;8.98;;;11.40;99.90;;;;;;4986412;28;39637;-73
2022/05/31 05:41:15;;;;;;;11.57;8.88;;;11.40;99.90;;;;;;5002987;28;40570;-73
2022/05/31 05:43:41;;;;;;;11.50;8.93;;;11.60;99.90;;;;;;4983718;28;38237;-74
2022/05/31 05:46:21;;;;;;;14.95;9.13;;;11.60;99.90;;;;;;4989426;28;38115;-73
2022/05/31 05:48:48;;;;;;;11.75;8.20;;;11.70;99.90;;;;;;4983380;28;39971;-73
2022/05/31 05:51:29;;;;;;;11.05;8.60;;;11.70;99.90;;;;;;4984634;28;39436;-74
2022/05/31 05:53:56;;;;;;;11.60;8.05;;;11.90;99.90;;;;;;4983647;28;39539;-73
2022/05/31 05:56:23;;;;;;;12.43;9.20;;;12.00;99.90;;;;;;5000518;28;37164;-74
2022/05/31 05:58:49;;;;;;;8.77;7.80;;;12.10;99.90;;;;;;4990399;28;39690;-74
2022/05/31 06:01:42;;;;;;;10.80;8.20;;;12.20;99.90;;;;;;4986229;28;39020;-73
2022/05/31 06:04:13;;;;;;;;;;;12.30;99.90;;;;;;5001059;28;38219;-73
2022/05/31 06:06:42;;;;;;;10.00;7.82;;;12.50;99.90;;;;;;4997243;28;37415;-73
2022/05/31 06:09:16;;;;;;;11.68;7.55;;;12.70;99.90;;;;;;4988041;28;39737;-73
2022/05/31 06:11:49;;;;;;;9.05;7.90;;;13.00;99.90;;;;;;4985725;28;37747;-73
2022/05/31 06:14:18;;;;;;;12.82;7.25;;;13.20;99.90;;;;;;4990447;28;40213;-74
2022/05/31 06:16:55;;;;;;;8.73;6.78;;;13.30;99.90;;;;;;4988550;28;37097;-73
2022/05/31 06:19:35;;;;;;;10.10;7.75;;;13.30;99.90;;;;;;4987940;28;38833;-73
2022/05/31 06:22:03;;;;;;;9.70;7.10;;;13.60;99.90;;;;;;4999139;28;42575;-73
2022/05/31 06:24:32;;;;;;;10.18;7.20;;;13.90;99.90;;;;;;4987715;28;47021;-73
2022/05/31 06:26:58;;;;;;;9.38;6.78;;;14.10;99.90;;;;;;4990522;28;37586;-74
2022/05/31 06:29:24;;;;;;;9.55;6.10;;;14.40;99.90;;;;;;4986536;28;39460;-74
2022/05/31 06:31:50;;;;;;;10.18;6.28;;;14.70;99.90;;;;;;4981465;28;38782;-75
2022/05/31 06:34:17;;;;;;;8.95;5.38;;;15.00;99.90;;;;;;4987031;28;38306;-75
2022/05/31 06:36:43;;;;;;;8.70;5.32;;;15.30;99.90;;;;;;4999905;28;38083;-75
2022/05/31 06:39:09;;;;;;;8.77;5.05;;;15.60;99.90;;;;;;4997933;28;38851;-75
2022/05/31 06:41:36;;;;;;;8.15;5.75;;;15.70;99.90;;;;;;4987859;28;39674;-74
2022/05/31 06:44:02;;;;;;;8.77;5.55;;;16.00;99.90;;;;;;5001286;28;38886;-74
2022/05/31 06:46:29;;;;;;;7.63;5.32;;;16.00;99.90;;;;;;4987321;28;36416;-75
2022/05/31 06:48:57;;;;;;;7.15;4.63;;;16.40;99.90;;;;;;4985992;28;38623;-75
2022/05/31 06:57:00;;;;;;;7.47;4.43;;;17.10;99.90;;;;;;4983028;28;38490;-76
2022/05/31 06:59:26;;;;;;;4.30;3.75;;;16.90;99.90;;;;;;5003277;28;40164;-74
2022/05/31 07:01:53;;;;;;;9.30;4.50;;;16.80;99.90;;;;;;4982826;28;38789;-75
2022/05/31 07:04:19;;;;;;;7.78;4.55;;;15.90;99.90;;;;;;4987278;28;39329;-75
2022/05/31 07:06:46;;;;;;;8.13;4.35;;;15.50;99.90;;;;;;4985787;28;37310;-76
2022/05/31 07:09:14;;;;;;;8.27;4.57;;;15.40;99.90;;;;;;4980803;28;39784;-75
2022/05/31 07:11:41;;;;;;;6.97;4.70;;;15.40;99.90;;;;;;4981458;28;39437;-74
2022/05/31 07:14:07;;;;;;;6.15;4.10;;;15.80;99.90;;;;;;4998732;28;38119;-75
2022/05/31 07:16:33;;;;;;;6.68;3.78;;;16.10;99.90;;;;;;4991781;28;36519;-75
2022/05/31 07:18:59;;;;;;;7.18;4.07;;;16.20;99.90;;;;;;4987121;28;38713;-75
2022/05/31 07:21:25;;;;;;;7.78;4.18;;;16.10;99.90;;;;;;4970835;28;39307;-75
2022/05/31 07:23:53;;;;;;;6.07;3.97;;;15.90;99.90;;;;;;4989109;28;38572;-75
2022/05/31 07:26:20;;;;;;;10.07;3.90;;;16.10;99.90;;;;;;4989029;28;36519;-74
2022/05/31 07:28:46;;;;;;;7.15;3.70;;;15.90;99.90;;;;;;4980790;28;39519;-75
2022/05/31 07:31:12;;;;;;;7.07;4.15;;;15.80;99.90;;;;;;4985559;28;39459;-75
2022/05/31 07:33:38;;;;;;;9.80;4.50;;;16.00;99.90;;;;;;4981631;28;38329;-75
2022/05/31 07:36:07;;;;;;;8.15;4.53;;;16.60;99.90;;;;;;4980297;28;37810;-75
2022/05/31 07:38:34;;;;;;;7.70;4.40;;;17.30;99.90;;;;;;4994504;28;40539;-75
2022/05/31 07:41:00;;;;;;;6.63;3.55;;;17.40;99.90;;;;;;4985195;28;39311;-75
2022/05/31 07:43:26;;;;;;;7.75;5.07;;;16.80;99.90;;;;;;4985907;28;40064;-75
2022/05/31 07:46:05;;;;;;;6.20;4.50;;;16.30;99.90;;;;;;4979367;28;37188;-76
2022/05/31 07:48:33;;;;;;;8.57;4.53;;;16.10;99.90;;;;;;4985732;28;48243;-75
2022/05/31 07:50:59;;;;;;;12.20;4.53;;;16.00;99.90;;;;;;4984645;28;39788;-75
2022/05/31 07:53:26;;;;;;;6.63;4.15;;;15.90;99.90;;;;;;4983936;28;37237;-75
2022/05/31 07:56:07;;;;;;;11.68;4.53;;;15.80;99.90;;;;;;4987534;28;37591;-75
2022/05/31 07:58:35;;;;;;;9.48;4.80;;;15.90;99.90;;;;;;4986368;28;47371;-75
2022/05/31 08:01:05;;;;;;;9.20;4.45;;;16.30;99.90;;;;;;4981256;28;39891;-76
2022/05/31 08:03:32;;;;;;;11.35;4.80;;;16.70;99.90;;;;;;4985165;28;37774;-76
2022/05/31 08:06:03;;;;;;;9.85;4.88;;;17.10;99.90;;;;;;4989860;28;35847;-75
2022/05/31 08:08:29;;;;;;;6.05;4.20;;;17.10;99.90;;;;;;5001911;28;47717;-76
2022/05/31 08:10:56;;;;;;;6.05;4.18;;;17.60;99.90;;;;;;4985586;28;39610;-75
2022/05/31 08:13:22;;;;;;;9.13;4.57;;;17.40;99.90;;;;;;4997181;28;37387;-76
2022/05/31 08:15:48;;;;;;;5.60;3.55;;;17.80;99.90;;;;;;4985809;28;36916;-73
2022/05/31 08:18:14;;;;;;;9.20;4.60;;;18.10;99.90;;;;;;4986191;28;39251;-73
2022/05/31 08:20:40;;;;;;;6.47;4.03;;;18.20;99.90;;;;;;4986830;28;38943;-73
2022/05/31 08:23:07;;;;;;;6.25;3.75;;;18.20;99.90;;;;;;5000840;28;37433;-73
2022/05/31 08:25:34;;;;;;;7.10;4.10;;;18.70;99.90;;;;;;4972770;28;36827;-74
2022/05/31 08:28:01;;;;;;;8.75;4.03;;;18.60;99.90;;;;;;4999477;28;39014;-74
2022/05/31 08:30:27;;;;;;;6.60;3.50;;;18.40;99.90;;;;;;4989872;28;39385;-73
2022/05/31 08:32:53;;;;;;;7.40;3.45;;;18.60;99.90;;;;;;4987474;28;39422;-73
2022/05/31 08:35:19;;;;;;;9.82;4.80;;;18.80;99.90;;;;;;5003913;28;36100;-73
2022/05/31 08:37:45;;;;;;;7.75;3.80;;;18.50;99.90;;;;;;4987273;28;39365;-73
2022/05/31 08:40:12;;;;;;;4.55;2.50;;;18.10;99.90;;;;;;4986698;28;39590;-74
2022/05/31 08:43:01;;;;;;;7.28;2.78;;;18.30;99.90;;;;;;4980241;28;38421;-74
2022/05/31 08:45:32;;;;;;;3.33;2.50;;;17.70;99.90;;;;;;4984218;28;39235;-76
2022/05/31 08:48:08;;;;;;;5.95;3.30;;;17.60;99.90;;;;;;4985349;28;40379;-76
2022/05/31 08:56:56;;;;;;;4.60;2.17;;;17.90;99.90;;;;;;4986463;28;49138;-74
2022/05/31 08:56:59;;;;;;;4.88;2.45;;;18.30;99.90;;;;;;4988653;28;48298;-75
2022/05/31 08:59:40;;;;;;;4.22;2.00;;;18.90;99.90;;;;;;4988137;28;38816;-76
2022/05/31 09:02:28;;;;;;;7.38;2.35;;;18.70;99.90;;;;;;4997706;28;39708;-74
2022/05/31 09:05:13;;;;;;;4.43;2.67;;;18.40;99.90;;;;;;4997611;28;39470;-75
2022/05/31 09:07:47;;;;;;;5.30;2.42;;;18.30;99.90;;;;;;5003018;28;47526;-75
2022/05/31 09:10:25;;;;;;;4.05;2.10;;;19.00;99.90;;;;;;4982020;28;38651;-73
2022/05/31 09:12:58;;;;;;;7.20;2.83;;;19.50;99.90;;;;;;4986149;28;38828;-73
2022/05/31 09:15:37;;;;;;;3.53;2.25;;;19.30;99.90;;;;;;5001316;28;39376;-73
2022/05/31 09:18:42;;;;;;;7.07;2.55;;;19.20;99.90;;;;;;4985856;28;37421;-74
2022/05/31 09:21:37;;;;;;;5.97;2.88;;;19.70;99.90;;;;;;5005811;28;38197;-74
2022/05/31 09:24:24;;;;;;;6.90;2.60;;;19.40;99.90;;;;;;4994734;28;38809;-74
2022/05/31 09:27:06;;;;;;;5.65;2.47;;;19.20;99.90;;;;;;4983284;28;39239;-75
2022/05/31 09:29:41;;;;;;;5.75;2.40;;;20.00;99.90;;;;;;4982531;28;47326;-74
2022/05/31 09:32:39;;;;;;;5.88;1.98;;;20.00;99.90;;;;;;4979853;28;37833;-74
2022/05/31 09:35:12;;;;;;;16.13;3.10;;;19.20;99.90;;;;;;4999826;28;38460;-74
2022/05/31 09:38:14;;;;;;;3.30;1.65;;;19.60;99.90;;;;;;4986146;28;39371;-73
2022/05/31 09:40:46;;;;;;;5.18;1.85;;;20.70;99.90;;;;;;4964075;28;47653;-75
2022/05/31 09:43:23;;;;;;;;;;;21.60;99.90;;;;;;4983623;28;39104;-76
2022/05/31 09:45:56;;;;;;;5.10;2.50;;;21.20;99.90;;;;;;4980029;28;39092;-76
2022/05/31 09:48:22;;;;;;;5.63;2.90;;;20.50;99.90;;;;;;4985398;28;39433;-74
2022/05/31 09:50:48;;;;;;;6.53;3.15;;;20.60;99.90;;;;;;4985053;28;38018;-75
2022/05/31 09:59:06;;;;;;;7.72;2.65;;;18.70;99.90;;;;;;4980082;28;39932;-75
2022/05/31 10:01:44;;;;;;;2.75;2.20;;;18.60;99.90;;;;;;4999526;28;47412;-75
2022/05/31 10:04:13;;;;;;;5.45;2.40;;;18.60;99.90;;;;;;4999805;28;39355;-75
2022/05/31 10:07:04;;;;;;;5.60;2.15;;;18.70;99.90;;;;;;5001055;28;39191;-75
2022/05/31 10:09:35;;;;;;;2.85;1.42;;;19.30;99.90;;;;;;4975975;28;48549;-75
2022/05/31 10:12:13;;;;;;;2.80;1.50;;;20.10;99.90;;;;;;4976314;28;36064;-76
2022/05/31 10:14:50;;;;;;;4.30;1.50;;;20.50;99.90;;;;;;4983673;28;38903;-74
2022/05/31 10:17:34;;;;;;;4.60;1.70;;;20.40;99.90;;;;;;4983864;28;38073;-76
2022/05/31 10:20:23;;;;;;;2.75;1.25;;;20.10;99.90;;;;;;4985424;28;38643;-74
2022/05/31 10:23:06;;;;;;;2.72;1.23;;;20.30;99.90;;;;;;4986800;28;49269;-76
2022/05/31 10:25:39;;;;;;;4.40;1.60;;;21.10;99.90;;;;;;5003548;28;46968;-74
2022/05/31 10:28:21;;;;;;;3.55;1.33;;;20.40;99.90;;;;;;4998530;28;40088;-74
2022/05/31 10:31:10;;;;;;;3.30;1.50;;;20.50;99.90;;;;;;4979025;28;38158;-74
2022/05/31 10:33:37;;;;;;;3.85;1.88;;;20.20;99.90;;;;;;4986382;28;46932;-73
2022/05/31 10:36:16;;;;;;;3.20;1.67;;;20.30;99.90;;;;;;4986786;28;39310;-73
2022/05/31 10:38:48;;;;;;;3.30;1.60;;;20.10;99.90;;;;;;4997945;28;39460;-73
2022/05/31 10:41:30;;;;;;;3.65;1.50;;;20.70;99.90;;;;;;4983538;28;39836;-77
2022/05/31 10:43:59;;;;;;;5.13;1.90;;;21.80;99.90;;;;;;4978720;28;37169;-77
2022/05/31 10:46:31;;;;;;;5.93;1.63;;;21.80;99.90;;;;;;4977134;28;39874;-76
2022/05/31 10:49:02;;;;;;;3.53;1.73;;;22.00;99.90;;;;;;4999319;28;39423;-77
2022/05/31 10:51:50;;;;;;;3.13;1.67;;;22.50;99.90;;;;;;4988503;28;48783;-77
2022/05/31 10:54:37;;;;;;;6.10;1.63;;;21.60;99.90;;;;;;4999894;28;35696;-77
2022/05/31 10:57:48;;;;;;;10.60;1.85;;;21.10;99.90;;;;;;4982218;28;41125;-76
2022/05/31 11:00:26;;;;;;;2.33;1.00;;;21.70;99.90;;;;;;4987389;28;40604;-75
2022/05/31 11:03:13;;;;;;;4.38;2.05;;;21.20;99.90;;;;;;4988415;28;38583;-75
2022/05/31 11:05:57;;;;;;;4.03;2.65;;;21.70;99.90;;;;;;4987066;28;48836;-78
2022/05/31 11:11:28;;;;;;;4.80;2.67;;;21.30;99.90;;;;;;4978277;28;40865;-76
2022/05/31 11:14:00;;;;;;;3.30;2.00;;;21.00;99.90;;;;;;4988348;28;38880;-76
2022/05/31 11:16:52;;;;;;;3.58;1.95;;;20.70;99.90;;;;;;4987758;28;46995;-76
2022/05/31 11:19:33;;;;;;;6.00;2.22;;;20.40;99.90;;;;;;4959909;28;39515;-77
2022/05/31 11:22:20;;;;;;;3.67;2.40;;;20.50;99.90;;;;;;4984536;28;39559;-76
2022/05/31 11:25:17;;;;;;;4.25;2.38;;;20.20;99.90;;;;;;4987381;28;48647;-74
2022/05/31 11:28:04;;;;;;;5.15;2.08;;;20.20;99.90;;;;;;4985654;28;48704;-74
2022/05/31 11:30:39;;;;;;;5.93;2.60;;;20.80;99.90;;;;;;4986270;28;48534;-74
2022/05/31 11:33:18;;;;;;;5.88;2.63;;;20.70;99.90;;;;;;4997555;28;39565;-74
2022/05/31 11:36:13;;;;;;;4.15;2.25;;;21.30;99.90;;;;;;4980585;28;39048;-74
2022/05/31 11:38:52;;;;;;;6.13;2.70;;;22.40;99.90;;;;;;4978286;28;48747;-75
2022/05/31 11:41:42;;;;;;;4.15;2.33;;;23.10;99.90;;;;;;4986578;28;38463;-75
2022/05/31 11:44:34;;;;;;;5.78;2.70;;;22.10;99.90;;;;;;4981408;28;38411;-75
2022/05/31 11:47:00;;;;;;;3.47;2.50;;;21.30;99.90;;;;;;4985714;28;39296;-76
2022/05/31 11:49:31;;;;;;;4.70;2.60;;;21.10;99.90;;;;;;4977706;28;40464;-76
2022/05/31 11:52:34;;;;;;;6.55;2.88;;;21.10;99.90;;;;;;4981963;28;40864;-77
2022/05/31 11:55:30;;;;;;;;;;;20.70;99.90;;;;;;4999635;28;47141;-73
2022/05/31 11:58:15;;;;;;;7.35;2.80;;;20.10;99.90;;;;;;4998711;28;47646;-73
2022/05/31 12:01:03;;;;;;;5.90;2.72;;;20.10;99.90;;;;;;4995119;28;48698;-73
2022/05/31 12:03:37;;;;;;;4.82;2.50;;;20.70;99.90;;;;;;4999903;28;47397;-76
2022/05/31 12:06:33;;;;;;;4.80;2.47;;;21.30;99.90;;;;;;5002088;28;38012;-76
2022/05/31 12:09:14;;;;;;;5.47;3.05;;;22.10;99.90;;;;;;4997020;28;37161;-76
2022/05/31 12:11:59;;;;;;;6.82;2.95;;;22.20;99.90;;;;;;4971975;28;47556;-76
2022/05/31 12:14:28;;;;;;;4.53;2.35;;;22.60;99.90;;;;;;4983577;28;39811;-76
2022/05/31 12:16:55;;;;;;;6.10;2.70;;;22.80;99.90;;;;;;4987446;28;39559;-76
2022/05/31 12:19:48;;;;;;;4.05;2.92;;;22.90;99.90;;;;;;4984984;28;38384;-76
2022/05/31 12:22:14;;;;;;;5.68;2.97;;;22.70;99.90;;;;;;4996205;28;36327;-76
2022/05/31 12:24:48;;;;;;;6.93;2.58;;;22.80;99.90;;;;;;4983942;28;41088;-77
2022/05/31 12:27:18;;;;;;;4.03;1.90;;;22.70;99.90;;;;;;4999552;28;37864;-76
2022/05/31 12:29:52;;;;;;;4.38;2.20;;;22.40;99.90;;;;;;4983402;28;37363;-76
2022/05/31 12:32:29;;;;;;;4.20;2.30;;;22.60;99.90;;;;;;4995869;28;36085;-77
2022/05/31 12:34:57;;;;;;;4.97;2.10;;;22.50;99.90;;;;;;5001262;28;38341;-76
2022/05/31 12:37:25;;;;;;;4.68;1.90;;;22.00;99.90;;;;;;4985542;28;40332;-75
2022/05/31 12:40:26;;;;;;;3.92;1.70;;;21.80;99.90;;;;;;4981945;28;38669;-77
2022/05/31 12:42:52;;;;;;;3.17;1.83;;;21.90;99.90;;;;;;4978371;28;49476;-79
2022/05/31 12:45:34;;;;;;;2.90;1.60;;;21.70;99.90;;;;;;4990252;28;38881;-76
2022/05/31 12:48:09;;;;;;;3.85;2.35;;;21.70;99.90;;;;;;4996738;28;39247;-76
2022/05/31 12:51:06;;;;;;;1.92;1.50;;;21.60;99.90;;;;;;4982038;28;47201;-76
2022/05/31 12:53:38;;;;;;;5.97;1.85;;;21.80;99.90;;;;;;4997954;28;47270;-76
2022/05/31 12:56:07;;;;;;;3.70;2.00;;;21.60;99.90;;;;;;4983142;28;38964;-75
2022/05/31 12:58:43;;;;;;;5.93;2.33;;;21.70;99.90;;;;;;4986340;28;37874;-75
2022/05/31 13:01:12;;;;;;;3.50;2.10;;;21.50;99.90;;;;;;4993494;28;39108;-76
2022/05/31 13:03:44;;;;;;;2.15;1.50;;;21.60;99.90;;;;;;4984426;28;36116;-76
2022/05/31 13:06:36;;;;;;;3.92;1.85;;;21.70;99.90;;;;;;4988633;28;38319;-76
2022/05/31 13:09:25;;;;;;;3.08;1.90;;;22.40;99.90;;;;;;4964591;28;39031;-77
2022/05/31 13:20:59;;;;;;;5.05;2.67;;;21.30;99.90;;;;;;4983891;28;49193;-76
2022/05/31 13:23:35;;;;;;;4.18;2.08;;;21.20;99.90;;;;;;4983133;28;37548;-77
2022/05/31 13:26:08;;;;;;;5.18;2.60;;;21.40;99.90;;;;;;4977979;28;38792;-77
2022/05/31 13:28:40;;;;;;;4.22;2.60;;;21.80;99.90;;;;;;4982603;28;37726;-76
2022/05/31 13:31:11;;;;;;;4.22;2.22;;;22.30;99.90;;;;;;4996278;28;41210;-78
2022/05/31 13:33:37;;;;;;;3.83;2.40;;;22.50;99.90;;;;;;4975000;28;39102;-77
2022/05/31 13:36:23;;;;;;;6.68;2.55;;;22.50;99.90;;;;;;4993092;28;36300;-76
2022/05/31 13:38:57;;;;;;;6.03;2.65;;;22.80;99.90;;;;;;4981386;28;40352;-76
2022/05/31 13:41:25;;;;;;;5.85;2.40;;;22.80;99.90;;;;;;4981516;28;39805;-77
2022/05/31 13:43:54;;;;;;;7.55;2.53;;;22.90;99.90;;;;;;4993977;28;38566;-77
2022/05/31 13:46:42;;;;;;;4.03;2.50;;;22.60;99.90;;;;;;4992471;28;36234;-76
2022/05/31 13:49:17;;;;;;;9.10;3.33;;;22.30;99.90;;;;;;4979030;28;40829;-77
2022/05/31 13:52:01;;;;;;;5.22;2.95;;;21.70;99.90;;;;;;4986262;28;39723;-76